Time;durP1;ratioP1;P1;durP2;ratioP2;P2;SDS_P1;SDS_P2;PMS_P1;PMS_P2;Temp;Humidity;BMP_temperature;BMP_pressure;BME280_temperature;BME280_humidity;BME280_pressure;Samples;Min_cycle;Max_cycle;Signal;HPM_P1;HPM_P2
2021/09/01 00:02:05;;;;;;;;;25.00;23.25;;;;;;;;5048728;28;8797;-88
2021/09/01 00:04:34;;;;;;;;;26.50;22.75;;;;;;;;5065913;28;9636;-87
2021/09/01 00:07:01;;;;;;;;;30.25;25.50;;;;;;;;5079604;28;8987;-87
2021/09/01 00:09:28;;;;;;;;;26.75;22.75;;;;;;;;5084639;28;8881;-85
2021/09/01 00:11:57;;;;;;;;;25.25;24.25;;;;;;;;5071348;28;8856;-89
2021/09/01 00:14:25;;;;;;;;;28.75;25.00;;;;;;;;5067146;28;8975;-88
2021/09/01 00:16:52;;;;;;;;;22.00;21.25;;;;;;;;5081379;28;8873;-89
2021/09/01 00:19:20;;;;;;;;;21.50;21.50;;;;;;;;5051832;28;8861;-86
2021/09/01 00:21:49;;;;;;;;;23.75;23.25;;;;;;;;5051923;28;8865;-90
2021/09/01 00:24:17;;;;;;;;;25.50;25.50;;;;;;;;5069919;28;8974;-94
2021/09/01 00:26:45;;;;;;;;;24.25;23.50;;;;;;;;5070662;28;8861;-90
2021/09/01 00:29:12;;;;;;;;;24.25;24.25;;;;;;;;5082398;28;8888;-77
2021/09/01 00:31:40;;;;;;;;;26.00;24.50;;;;;;;;5082647;28;8842;-93
2021/09/01 00:34:07;;;;;;;;;25.50;24.50;;;;;;;;5063245;28;8925;-89
2021/09/01 00:36:34;;;;;;;;;28.25;24.50;;;;;;;;5051486;28;9701;-91
2021/09/01 00:39:04;;;;;;;;;21.50;20.75;;;;;;;;5050997;28;8878;-90
2021/09/01 00:41:31;;;;;;;;;24.00;24.00;;;;;;;;5076292;28;8976;-88
2021/09/01 00:44:00;;;;;;;;;21.75;20.75;;;;;;;;5067837;28;8894;-89
2021/09/01 00:46:27;;;;;;;;;17.75;12.50;;;;;;;;5060518;28;8870;-85
2021/09/01 00:48:55;;;;;;;;;23.50;21.75;;;;;;;;5069720;28;8876;-87
2021/09/01 00:51:22;;;;;;;;;20.50;18.50;;;;;;;;5079691;28;8994;-90
2021/09/01 00:53:51;;;;;;;;;23.75;23.50;;;;;;;;5067519;28;8855;-87
2021/09/01 00:56:20;;;;;;;;;21.25;21.25;;;;;;;;5077741;28;8869;-86
2021/09/01 00:58:48;;;;;;;;;24.75;24.75;;;;;;;;5069090;28;8881;-88
2021/09/01 01:01:16;;;;;;;;;25.25;22.75;;;;;;;;5068176;28;8856;-88
2021/09/01 01:03:47;;;;;;;;;22.00;20.50;;;;;;;;5071661;28;8926;-87
2021/09/01 01:06:15;;;;;;;;;28.00;25.75;;;;;;;;5067557;28;8855;-87
2021/09/01 01:08:42;;;;;;;;;29.50;28.25;;;;;;;;5076071;28;8844;-87
2021/09/01 01:11:13;;;;;;;;;25.00;21.00;;;;;;;;5065770;28;8871;-78
2021/09/01 01:13:42;;;;;;;;;25.50;21.25;;;;;;;;5071115;28;8920;-88
2021/09/01 01:16:12;;;;;;;;;28.50;24.75;;;;;;;;5074073;28;8886;-90
2021/09/01 01:18:40;;;;;;;;;27.00;26.25;;;;;;;;5058554;28;10111;-83
2021/09/01 01:21:08;;;;;;;;;28.00;26.25;;;;;;;;5050805;28;8856;-87
2021/09/01 01:23:36;;;;;;;;;24.00;23.75;;;;;;;;5044904;28;8895;-84
2021/09/01 01:26:04;;;;;;;;;25.25;24.25;;;;;;;;5081692;28;8999;-87
2021/09/01 01:28:31;;;;;;;;;26.75;24.25;;;;;;;;5060333;28;8878;-91
2021/09/01 01:30:59;;;;;;;;;23.25;16.75;;;;;;;;5066417;28;8942;-90
2021/09/01 01:33:26;;;;;;;;;26.25;24.00;;;;;;;;5069492;28;8887;-95
2021/09/01 01:35:53;;;;;;;;;18.00;17.50;;;;;;;;5082210;28;8865;-88
2021/09/01 01:38:21;;;;;;;;;24.00;22.75;;;;;;;;5073790;28;8867;-91
2021/09/01 01:40:49;;;;;;;;;29.50;25.00;;;;;;;;5081266;28;8888;-83
2021/09/01 01:43:17;;;;;;;;;23.25;23.25;;;;;;;;5070093;28;9012;-83
2021/09/01 01:45:47;;;;;;;;;25.50;24.00;;;;;;;;5083672;28;9031;-86
2021/09/01 01:48:16;;;;;;;;;21.75;21.75;;;;;;;;5071890;28;8880;-93
2021/09/01 01:50:44;;;;;;;;;30.00;24.00;;;;;;;;5065862;28;8913;-90
2021/09/01 01:53:11;;;;;;;;;20.25;20.25;;;;;;;;5076120;28;8848;-92
2021/09/01 01:55:39;;;;;;;;;24.00;21.00;;;;;;;;5078202;28;8961;-90
2021/09/01 01:58:06;;;;;;;;;24.75;24.00;;;;;;;;5077489;28;8876;-92
2021/09/01 02:00:36;;;;;;;;;28.00;24.25;;;;;;;;5060081;28;8791;-84
2021/09/01 02:03:03;;;;;;;;;33.25;28.75;;;;;;;;5074491;28;9503;-90
2021/09/01 02:05:31;;;;;;;;;22.75;18.25;;;;;;;;5081595;28;8880;-86
2021/09/01 02:07:58;;;;;;;;;28.25;22.25;;;;;;;;5072334;28;8882;-92
2021/09/01 02:10:26;;;;;;;;;20.00;20.00;;;;;;;;5081414;28;8930;-90
2021/09/01 02:12:53;;;;;;;;;31.25;24.00;;;;;;;;5078034;28;8971;-89
2021/09/01 02:15:20;;;;;;;;;23.25;22.75;;;;;;;;5076528;28;8896;-92
2021/09/01 02:17:49;;;;;;;;;25.00;23.00;;;;;;;;5070575;28;8882;-89
2021/09/01 02:20:17;;;;;;;;;23.25;21.25;;;;;;;;5071121;28;8996;-88
2021/09/01 02:22:45;;;;;;;;;28.75;27.50;;;;;;;;5072359;28;8860;-87
2021/09/01 02:25:13;;;;;;;;;28.25;24.25;;;;;;;;5071281;28;8873;-90
2021/09/01 02:27:40;;;;;;;;;27.75;21.75;;;;;;;;5070154;28;8870;-91
2021/09/01 02:30:09;;;;;;;;;28.00;23.00;;;;;;;;5072210;28;8988;-89
2021/09/01 02:32:36;;;;;;;;;30.25;28.75;;;;;;;;5072187;28;8994;-93
2021/09/01 02:35:06;;;;;;;;;26.50;24.25;;;;;;;;5065309;28;8860;-90
2021/09/01 02:37:33;;;;;;;;;31.50;26.75;;;;;;;;5063352;28;9681;-85
2021/09/01 02:40:00;;;;;;;;;28.75;26.75;;;;;;;;5078391;28;8914;-84
2021/09/01 02:42:27;;;;;;;;;23.75;22.50;;;;;;;;5065678;28;9005;-93
2021/09/01 02:44:57;;;;;;;;;28.00;27.50;;;;;;;;5074351;28;8874;-88
2021/09/01 02:47:25;;;;;;;;;22.75;22.00;;;;;;;;5054979;28;9703;-91
2021/09/01 02:49:52;;;;;;;;;24.75;24.00;;;;;;;;5068015;28;8894;-88
2021/09/01 02:52:21;;;;;;;;;32.25;28.50;;;;;;;;5078171;28;8861;-92
2021/09/01 02:54:48;;;;;;;;;34.50;29.75;;;;;;;;5064446;28;8979;-85
2021/09/01 02:57:16;;;;;;;;;26.50;26.50;;;;;;;;5070521;28;8889;-90
2021/09/01 02:59:43;;;;;;;;;35.50;32.00;;;;;;;;5063932;28;8908;-93
2021/09/01 03:02:10;;;;;;;;;24.00;24.00;;;;;;;;5066171;28;9626;-92
2021/09/01 03:04:38;;;;;;;;;27.75;22.00;;;;;;;;5060798;28;8878;-92
2021/09/01 03:07:05;;;;;;;;;30.50;29.50;;;;;;;;5063484;28;8861;-77
2021/09/01 03:09:34;;;;;;;;;28.75;24.50;;;;;;;;5084601;28;8853;-95
2021/09/01 03:12:01;;;;;;;;;23.25;20.25;;;;;;;;5074538;28;8858;-85
2021/09/01 03:14:28;;;;;;;;;26.75;22.25;;;;;;;;5075747;28;9006;-90
2021/09/01 03:16:56;;;;;;;;;22.67;22.00;;;;;;;;5058816;28;8874;-83
2021/09/01 03:19:23;;;;;;;;;27.50;23.25;;;;;;;;5064907;28;9691;-90
2021/09/01 03:21:52;;;;;;;;;23.25;23.25;;;;;;;;5064428;28;8871;-84
2021/09/01 03:24:19;;;;;;;;;28.00;28.00;;;;;;;;5060264;28;8961;-91
2021/09/01 03:26:48;;;;;;;;;29.50;25.25;;;;;;;;5080458;28;8978;-94
2021/09/01 03:29:15;;;;;;;;;25.00;22.75;;;;;;;;5064787;28;8937;-90
2021/09/01 03:31:42;;;;;;;;;30.00;28.75;;;;;;;;5071612;28;9006;-93
2021/09/01 03:34:09;;;;;;;;;30.00;28.00;;;;;;;;5077595;28;8891;-91
2021/09/01 03:36:37;;;;;;;;;19.33;19.33;;;;;;;;5077556;28;9076;-91
2021/09/01 03:39:04;;;;;;;;;26.75;24.00;;;;;;;;5077747;28;9061;-92
2021/09/01 03:41:32;;;;;;;;;25.50;22.75;;;;;;;;5079785;28;9010;-91
2021/09/01 03:44:00;;;;;;;;;29.50;27.75;;;;;;;;5070707;28;8901;-89
2021/09/01 03:46:28;;;;;;;;;29.00;21.67;;;;;;;;5081971;28;9459;-91
2021/09/01 03:48:55;;;;;;;;;27.25;24.25;;;;;;;;5052742;28;8956;-96
2021/09/01 03:51:22;;;;;;;;;27.25;24.25;;;;;;;;5063841;28;8855;-81
2021/09/01 03:53:49;;;;;;;;;26.25;23.75;;;;;;;;5081761;28;8991;-89
2021/09/01 03:56:17;;;;;;;;;21.50;20.00;;;;;;;;5068281;28;8876;-92
2021/09/01 03:58:44;;;;;;;;;25.25;21.75;;;;;;;;5067366;28;8867;-90
2021/09/01 04:01:13;;;;;;;;;24.75;24.75;;;;;;;;5071327;28;8824;-85
2021/09/01 04:03:40;;;;;;;;;32.50;26.50;;;;;;;;5080448;28;8867;-81
2021/09/01 04:06:07;;;;;;;;;22.50;22.50;;;;;;;;5060216;28;8860;-79
2021/09/01 04:08:37;;;;;;;;;27.00;23.75;;;;;;;;5055910;28;8873;-80
2021/09/01 04:11:04;;;;;;;;;24.00;24.00;;;;;;;;5062703;28;8877;-81
2021/09/01 04:13:31;;;;;;;;;28.75;22.50;;;;;;;;5082640;28;8908;-83
2021/09/01 04:15:59;;;;;;;;;24.50;22.25;;;;;;;;5064357;28;8868;-81
2021/09/01 04:18:27;;;;;;;;;28.50;24.75;;;;;;;;5063319;28;8879;-84
2021/09/01 04:20:55;;;;;;;;;22.50;20.75;;;;;;;;5077314;28;9039;-86
2021/09/01 04:23:22;;;;;;;;;27.75;22.50;;;;;;;;5072563;28;8869;-89
2021/09/01 04:25:50;;;;;;;;;23.50;21.25;;;;;;;;5075741;28;9006;-85
2021/09/01 04:28:17;;;;;;;;;23.00;23.00;;;;;;;;5077851;28;8885;-89
2021/09/01 04:30:44;;;;;;;;;30.25;27.25;;;;;;;;5048023;28;8819;-89
2021/09/01 04:33:12;;;;;;;;;25.75;25.75;;;;;;;;5085436;28;8911;-87
2021/09/01 04:35:41;;;;;;;;;35.33;33.33;;;;;;;;5081556;28;8911;-84
2021/09/01 04:38:08;;;;;;;;;34.75;29.50;;;;;;;;5073421;28;9034;-86
2021/09/01 04:40:35;;;;;;;;;27.25;23.00;;;;;;;;5081423;28;8865;-90
2021/09/01 04:43:03;;;;;;;;;26.00;22.00;;;;;;;;5072603;28;9014;-82
2021/09/01 04:45:30;;;;;;;;;25.00;23.00;;;;;;;;5068278;28;8869;-86
2021/09/01 04:47:57;;;;;;;;;22.75;20.25;;;;;;;;5084134;28;8885;-84
2021/09/01 04:50:25;;;;;;;;;24.25;21.25;;;;;;;;5085075;28;8873;-83
2021/09/01 04:52:53;;;;;;;;;24.50;21.25;;;;;;;;5075496;28;8848;-87
2021/09/01 04:55:21;;;;;;;;;30.00;26.50;;;;;;;;5067393;28;8900;-77
2021/09/01 04:57:48;;;;;;;;;24.75;24.75;;;;;;;;5063023;28;8884;-91
2021/09/01 05:00:16;;;;;;;;;22.25;21.00;;;;;;;;5061800;28;8880;-81
2021/09/01 05:02:43;;;;;;;;;34.33;27.00;;;;;;;;5084452;28;8857;-87
2021/09/01 05:05:11;;;;;;;;;18.33;18.33;;;;;;;;5051086;28;8941;-83
2021/09/01 05:07:38;;;;;;;;;20.50;20.50;;;;;;;;5084161;28;8992;-86
2021/09/01 05:10:08;;;;;;;;;23.00;21.75;;;;;;;;5085463;28;8873;-87
2021/09/01 05:12:36;;;;;;;;;26.33;26.33;;;;;;;;5072431;28;8986;-85
2021/09/01 05:15:04;;;;;;;;;39.33;35.00;;;;;;;;5069228;28;8971;-85
2021/09/01 05:17:31;;;;;;;;;48.25;40.25;;;;;;;;5061881;28;9254;-79
2021/09/01 05:19:59;;;;;;;;;56.25;44.00;;;;;;;;5064363;28;9576;-80
2021/09/01 05:22:31;;;;;;;;;58.50;48.75;;;;;;;;5085936;28;9879;-83
2021/09/01 05:25:03;;;;;;;;;59.50;49.00;;;;;;;;5065935;28;10046;-79
2021/09/01 05:27:33;;;;;;;;;58.75;48.00;;;;;;;;5054330;28;9902;-81
2021/09/01 05:30:01;;;;;;;;;53.00;43.50;;;;;;;;5067219;28;9904;-80
2021/09/01 05:32:31;;;;;;;;;63.25;49.75;;;;;;;;5047229;28;10613;-80
2021/09/01 05:35:00;;;;;;;;;61.75;48.00;;;;;;;;5065211;28;10385;-81
2021/09/01 05:37:28;;;;;;;;;58.00;47.50;;;;;;;;5065915;28;10007;-80
2021/09/01 05:39:59;;;;;;;;;53.00;44.00;;;;;;;;5085277;28;10724;-81
2021/09/01 05:42:27;;;;;;;;;38.25;32.50;;;;;;;;5079638;28;9972;-81
2021/09/01 05:44:57;;;;;;;;;50.75;42.50;;;;;;;;5065451;28;9425;-81
2021/09/01 05:47:26;;;;;;;;;48.00;40.25;;;;;;;;5071380;28;9561;-81
2021/09/01 05:49:55;;;;;;;;;52.00;42.75;;;;;;;;5085957;28;9581;-81
2021/09/01 05:52:24;;;;;;;;;57.00;45.00;;;;;;;;5085908;28;9546;-80
2021/09/01 05:54:55;;;;;;;;;47.67;40.33;;;;;;;;5086478;28;9751;-80
2021/09/01 05:57:33;;;;;;;;;37.33;36.00;;;;;;;;5085508;28;9414;-80
2021/09/01 06:00:09;;;;;;;;;29.00;28.25;;;;;;;;5062813;28;9106;-81
2021/09/01 06:02:46;;;;;;;;;24.00;24.00;;;;;;;;5085239;28;8876;-80
2021/09/01 06:05:14;;;;;;;;;23.25;23.25;;;;;;;;5072510;28;8873;-80
2021/09/01 06:07:52;;;;;;;;;26.25;23.75;;;;;;;;5085969;28;8872;-81
2021/09/01 06:10:25;;;;;;;;;21.75;21.00;;;;;;;;5060651;28;8911;-80
2021/09/01 06:12:54;;;;;;;;;24.50;21.50;;;;;;;;5080376;28;8877;-79
2021/09/01 06:15:24;;;;;;;;;24.00;23.25;;;;;;;;5069108;28;8890;-81
2021/09/01 06:17:51;;;;;;;;;21.50;21.00;;;;;;;;5066032;28;10307;-81
2021/09/01 06:20:19;;;;;;;;;24.75;23.25;;;;;;;;5065034;28;8886;-81
2021/09/01 06:22:46;;;;;;;;;30.00;23.50;;;;;;;;5078964;28;9631;-81
2021/09/01 06:25:14;;;;;;;;;23.75;20.75;;;;;;;;5067688;28;8896;-81
2021/09/01 06:27:41;;;;;;;;;18.25;17.25;;;;;;;;5064720;28;8902;-80
2021/09/01 06:30:09;;;;;;;;;22.00;22.00;;;;;;;;5047537;28;8904;-81
2021/09/01 06:32:38;;;;;;;;;25.00;22.00;;;;;;;;5064330;28;8875;-81
2021/09/01 06:35:06;;;;;;;;;22.00;21.00;;;;;;;;5065538;28;8860;-81
2021/09/01 06:37:34;;;;;;;;;26.25;22.75;;;;;;;;5062937;28;8872;-81
2021/09/01 06:40:02;;;;;;;;;16.75;16.25;;;;;;;;5067019;28;9710;-80
2021/09/01 06:42:29;;;;;;;;;25.25;22.25;;;;;;;;5078397;28;8864;-81
2021/09/01 06:44:56;;;;;;;;;18.50;17.75;;;;;;;;5064077;28;8879;-81
2021/09/01 06:47:23;;;;;;;;;19.25;15.50;;;;;;;;5065265;28;8864;-80
2021/09/01 06:49:52;;;;;;;;;24.00;21.75;;;;;;;;5046081;28;8903;-81
2021/09/01 06:52:19;;;;;;;;;22.00;20.50;;;;;;;;5064177;28;8879;-80
2021/09/01 06:54:47;;;;;;;;;23.00;20.25;;;;;;;;5063371;28;8997;-80
2021/09/01 06:57:14;;;;;;;;;15.50;14.50;;;;;;;;5064532;28;8875;-79
2021/09/01 06:59:41;;;;;;;;;23.25;21.00;;;;;;;;5044125;28;8895;-80
2021/09/01 07:02:09;;;;;;;;;20.25;20.25;;;;;;;;5062453;28;8828;-80
2021/09/01 07:04:36;;;;;;;;;23.25;22.00;;;;;;;;5027969;28;8878;-81
2021/09/01 07:07:05;;;;;;;;;22.25;18.00;;;;;;;;5063181;28;8964;-82
2021/09/01 07:09:32;;;;;;;;;21.25;17.75;;;;;;;;5064038;28;8884;-78
2021/09/01 07:11:59;;;;;;;;;24.75;21.25;;;;;;;;5062897;28;8856;-80
2021/09/01 07:14:27;;;;;;;;;20.00;17.00;;;;;;;;5061817;28;8867;-78
2021/09/01 07:16:54;;;;;;;;;18.50;17.50;;;;;;;;5064147;28;8871;-78
2021/09/01 07:19:21;;;;;;;;;23.00;19.00;;;;;;;;5063314;28;8872;-79
2021/09/01 07:21:49;;;;;;;;;22.50;21.00;;;;;;;;5063777;28;8884;-79
2021/09/01 07:24:17;;;;;;;;;16.50;15.00;;;;;;;;5062979;28;8910;-81
2021/09/01 07:26:45;;;;;;;;;15.50;15.00;;;;;;;;5063925;28;8891;-80
2021/09/01 07:29:12;;;;;;;;;18.50;16.00;;;;;;;;5060109;28;8904;-81
2021/09/01 07:31:40;;;;;;;;;19.25;15.00;;;;;;;;5062955;28;9710;-79
2021/09/01 07:34:07;;;;;;;;;17.75;14.75;;;;;;;;5045588;28;8925;-80
2021/09/01 07:36:35;;;;;;;;;16.00;14.75;;;;;;;;5061444;28;8884;-79
2021/09/01 07:39:02;;;;;;;;;20.25;16.25;;;;;;;;5063547;28;8859;-80
2021/09/01 07:41:31;;;;;;;;;14.00;14.00;;;;;;;;5062477;28;8906;-80
2021/09/01 07:43:58;;;;;;;;;19.00;16.75;;;;;;;;5062196;28;8869;-80
2021/09/01 07:46:26;;;;;;;;;18.50;17.25;;;;;;;;5061617;28;8872;-80
2021/09/01 07:48:57;;;;;;;;;16.75;16.75;;;;;;;;5064115;28;8864;-79
2021/09/01 07:51:25;;;;;;;;;17.00;15.75;;;;;;;;5030406;28;8892;-81
2021/09/01 07:53:52;;;;;;;;;16.25;12.75;;;;;;;;5045249;28;8864;-81
2021/09/01 07:56:19;;;;;;;;;15.00;14.75;;;;;;;;5063472;28;9640;-80
2021/09/01 07:58:48;;;;;;;;;13.25;13.25;;;;;;;;5042198;28;8894;-81
2021/09/01 08:01:15;;;;;;;;;14.50;13.25;;;;;;;;5060323;28;8824;-80
2021/09/01 08:03:43;;;;;;;;;14.00;14.00;;;;;;;;5061910;28;8871;-80
2021/09/01 08:06:10;;;;;;;;;14.50;14.50;;;;;;;;5045415;28;8868;-80
2021/09/01 08:08:38;;;;;;;;;15.00;12.25;;;;;;;;5062886;28;9610;-80
2021/09/01 08:11:05;;;;;;;;;9.00;9.00;;;;;;;;5063255;28;8872;-81
2021/09/01 08:13:32;;;;;;;;;13.75;12.25;;;;;;;;5062712;28;8868;-80
2021/09/01 08:16:01;;;;;;;;;14.50;12.75;;;;;;;;5061775;28;8856;-80
2021/09/01 08:18:29;;;;;;;;;14.25;14.25;;;;;;;;5046072;28;8899;-79
2021/09/01 08:20:56;;;;;;;;;13.50;12.25;;;;;;;;5062243;28;8883;-80
2021/09/01 08:23:23;;;;;;;;;14.25;14.25;;;;;;;;5063320;28;8929;-80
2021/09/01 08:25:51;;;;;;;;;11.50;11.25;;;;;;;;5044545;28;8860;-80
2021/09/01 08:28:18;;;;;;;;;14.00;14.00;;;;;;;;5063574;28;8880;-81
2021/09/01 08:30:45;;;;;;;;;14.33;10.67;;;;;;;;5061743;28;8801;-80
2021/09/01 08:33:14;;;;;;;;;13.25;13.25;;;;;;;;5062632;28;8990;-80
2021/09/01 08:35:42;;;;;;;;;13.00;11.00;;;;;;;;5062604;28;8971;-80
2021/09/01 08:38:09;;;;;;;;;15.00;13.00;;;;;;;;5059287;28;8902;-79
2021/09/01 08:40:36;;;;;;;;;9.25;9.25;;;;;;;;5063014;28;9668;-79
2021/09/01 08:43:04;;;;;;;;;13.00;11.75;;;;;;;;5043431;28;8974;-81
2021/09/01 08:45:31;;;;;;;;;16.00;14.25;;;;;;;;5066718;28;8898;-81
2021/09/01 08:47:59;;;;;;;;;12.75;12.75;;;;;;;;5066475;28;8902;-80
2021/09/01 08:50:30;;;;;;;;;14.00;14.00;;;;;;;;5048208;28;8899;-82
2021/09/01 08:52:57;;;;;;;;;12.50;12.50;;;;;;;;5066757;28;8868;-80
2021/09/01 08:55:25;;;;;;;;;14.75;13.00;;;;;;;;5065628;28;9641;-79
2021/09/01 08:57:52;;;;;;;;;13.75;11.50;;;;;;;;5049090;28;8982;-81
2021/09/01 09:00:20;;;;;;;;;22.00;17.75;;;;;;;;5062450;28;8972;-80
2021/09/01 09:02:55;;;;;;;;;16.75;13.75;;;;;;;;5064867;28;8896;-82
2021/09/01 09:05:33;;;;;;;;;11.20;11.20;;;;;;;;5064967;28;8895;-81
2021/09/01 09:08:00;;;;;;;;;15.00;12.00;;;;;;;;5066282;28;8871;-81
2021/09/01 09:10:33;;;;;;;;;11.25;11.25;;;;;;;;5065985;28;9007;-80
2021/09/01 09:13:02;;;;;;;;;14.00;14.00;;;;;;;;5065375;28;8864;-81
2021/09/01 09:15:30;;;;;;;;;17.00;13.75;;;;;;;;5064063;28;8863;-81
2021/09/01 09:17:57;;;;;;;;;15.00;13.00;;;;;;;;5047605;28;8899;-81
2021/09/01 09:20:29;;;;;;;;;15.20;15.20;;;;;;;;5065987;28;8956;-80
2021/09/01 09:22:59;;;;;;;;;12.25;11.75;;;;;;;;5065730;28;8852;-81
2021/09/01 09:25:30;;;;;;;;;13.00;12.20;;;;;;;;5065684;28;8864;-81
2021/09/01 09:27:59;;;;;;;;;12.40;11.20;;;;;;;;5049653;28;8855;-81
2021/09/01 09:30:29;;;;;;;;;12.40;12.40;;;;;;;;5064348;28;8853;-81
2021/09/01 09:33:00;;;;;;;;;14.80;13.60;;;;;;;;5046692;28;8883;-82
2021/09/01 09:35:49;;;;;;;;;13.80;13.80;;;;;;;;5046784;28;8887;-84
2021/09/01 09:38:31;;;;;;;;;10.40;10.00;;;;;;;;5044263;28;8887;-85
2021/09/01 09:40:59;;;;;;;;;11.00;11.00;;;;;;;;5046068;28;8961;-82
2021/09/01 09:43:27;;;;;;;;;12.40;12.40;;;;;;;;5064826;28;8867;-84
2021/09/01 09:46:04;;;;;;;;;14.80;14.80;;;;;;;;5065368;28;8881;-83
2021/09/01 09:48:34;;;;;;;;;12.60;12.60;;;;;;;;5065189;28;8872;-83
2021/09/01 09:51:03;;;;;;;;;14.40;13.00;;;;;;;;5065701;28;8864;-84
2021/09/01 09:53:35;;;;;;;;;17.60;15.00;;;;;;;;5065255;28;8849;-84
2021/09/01 09:56:08;;;;;;;;;12.40;11.80;;;;;;;;5065047;28;8866;-82
2021/09/01 09:58:37;;;;;;;;;13.20;12.00;;;;;;;;5065255;28;9014;-83
2021/09/01 10:01:26;;;;;;;;;11.00;11.00;;;;;;;;5063491;28;9628;-83
2021/09/01 10:03:54;;;;;;;;;17.80;13.40;;;;;;;;5066423;28;8891;-84
2021/09/01 10:06:22;;;;;;;;;13.00;12.80;;;;;;;;5064708;28;8860;-84
2021/09/01 10:08:53;;;;;;;;;13.80;12.60;;;;;;;;5065001;28;8968;-84
2021/09/01 10:11:22;;;;;;;;;12.40;12.40;;;;;;;;5065547;28;8951;-83
2021/09/01 10:13:51;;;;;;;;;13.60;13.60;;;;;;;;5062247;28;8871;-83
2021/09/01 10:16:27;;;;;;;;;13.80;13.80;;;;;;;;5064832;28;8854;-83
2021/09/01 10:18:59;;;;;;;;;18.60;14.80;;;;;;;;5064007;28;9695;-83
2021/09/01 10:21:29;;;;;;;;;12.80;12.80;;;;;;;;5064914;28;8882;-83
2021/09/01 10:23:58;;;;;;;;;15.20;15.20;;;;;;;;5066704;28;8876;-83
2021/09/01 10:26:30;;;;;;;;;15.40;15.00;;;;;;;;5064603;28;8886;-84
2021/09/01 10:28:58;;;;;;;;;17.20;15.40;;;;;;;;5064422;28;9582;-84
2021/09/01 10:31:29;;;;;;;;;11.20;11.20;;;;;;;;5062744;28;9578;-82
2021/09/01 10:34:01;;;;;;;;;10.20;9.80;;;;;;;;5065066;28;8882;-84
2021/09/01 10:36:48;;;;;;;;;13.60;12.00;;;;;;;;5069713;28;8895;-81
2021/09/01 10:39:33;;;;;;;;;14.80;14.80;;;;;;;;5056185;28;8890;-82
2021/09/01 10:42:04;;;;;;;;;15.40;14.00;;;;;;;;5059342;28;8866;-80
2021/09/01 10:44:47;;;;;;;;;16.60;16.60;;;;;;;;5060896;28;8876;-76
2021/09/01 10:47:14;;;;;;;;;17.20;16.60;;;;;;;;5066444;28;8868;-76
2021/09/01 10:50:02;;;;;;;;;13.20;13.20;;;;;;;;5050141;28;8857;-75
2021/09/01 10:52:55;;;;;;;;;14.00;14.00;;;;;;;;5067595;28;9034;-77
2021/09/01 10:55:24;;;;;;;;;11.60;11.60;;;;;;;;5062489;28;9653;-74
2021/09/01 10:58:23;;;;;;;;;15.00;12.60;;;;;;;;5059011;28;8878;-75
2021/09/01 11:01:03;;;;;;;;;14.80;14.40;;;;;;;;5056414;28;8862;-76
2021/09/01 11:03:34;;;;;;;;;19.00;17.40;;;;;;;;5064583;28;8901;-76
2021/09/01 11:06:22;;;;;;;;;10.20;10.00;;;;;;;;5066170;28;9010;-76
2021/09/01 11:09:11;;;;;;;;;16.20;14.40;;;;;;;;5066207;28;8925;-76
2021/09/01 11:11:53;;;;;;;;;15.40;13.20;;;;;;;;5055224;28;8872;-76
2021/09/01 11:14:47;;;;;;;;;17.40;16.20;;;;;;;;5061650;28;9133;-75
2021/09/01 11:17:16;;;;;;;;;13.00;13.00;;;;;;;;5049666;28;8860;-75
2021/09/01 11:19:44;;;;;;;;;22.60;17.80;;;;;;;;5062252;28;8875;-75
2021/09/01 11:22:13;;;;;;;;;16.00;14.40;;;;;;;;5059496;28;8895;-77
2021/09/01 11:24:45;;;;;;;;;12.40;12.40;;;;;;;;5061569;28;8860;-77
2021/09/01 11:27:16;;;;;;;;;18.60;16.00;;;;;;;;5063439;28;8888;-77
2021/09/01 11:29:43;;;;;;;;;16.60;13.80;;;;;;;;5049455;28;8864;-77
2021/09/01 11:32:15;;;;;;;;;15.40;13.60;;;;;;;;5061444;28;8817;-76
2021/09/01 11:34:42;;;;;;;;;15.20;15.20;;;;;;;;5061080;28;8852;-76
2021/09/01 11:37:10;;;;;;;;;18.80;18.80;;;;;;;;5072034;28;8871;-76
2021/09/01 11:39:45;;;;;;;;;14.20;14.20;;;;;;;;5062798;28;8863;-75
2021/09/01 11:42:14;;;;;;;;;18.80;16.80;;;;;;;;5043157;28;8863;-75
2021/09/01 11:44:42;;;;;;;;;18.60;14.00;;;;;;;;5063258;28;8991;-76
2021/09/01 11:47:15;;;;;;;;;13.20;12.60;;;;;;;;5062597;28;8869;-76
2021/09/01 11:49:43;;;;;;;;;16.20;14.00;;;;;;;;5063184;28;8868;-76
2021/09/01 11:52:10;;;;;;;;;5.40;5.40;;;;;;;;5062919;28;8900;-76
2021/09/01 11:54:40;;;;;;;;;13.20;13.20;;;;;;;;5061978;28;8875;-76
2021/09/01 11:57:07;;;;;;;;;16.40;16.40;;;;;;;;5072366;28;9650;-76
2021/09/01 11:59:37;;;;;;;;;15.20;15.20;;;;;;;;5061262;28;8918;-76
2021/09/01 12:02:07;;;;;;;;;14.60;14.60;;;;;;;;5064766;28;8812;-75
2021/09/01 12:04:41;;;;;;;;;14.60;14.60;;;;;;;;5081112;28;8869;-76
2021/09/01 12:07:10;;;;;;;;;14.80;14.00;;;;;;;;5083298;28;9774;-76
2021/09/01 12:09:38;;;;;;;;;13.20;11.60;;;;;;;;5083704;28;9027;-76
2021/09/01 12:12:06;;;;;;;;;10.40;10.40;;;;;;;;5071201;28;8886;-76
2021/09/01 12:14:36;;;;;;;;;12.40;12.20;;;;;;;;5060092;28;8868;-76
2021/09/01 12:17:17;;;;;;;;;10.80;9.80;;;;;;;;5064019;28;9661;-76
2021/09/01 12:19:49;;;;;;;;;14.40;14.40;;;;;;;;5071303;28;8889;-76
2021/09/01 12:22:30;;;;;;;;;12.00;11.80;;;;;;;;5088591;28;8869;-76
2021/09/01 12:25:02;;;;;;;;;12.40;12.40;;;;;;;;5086479;28;8896;-76
2021/09/01 12:27:29;;;;;;;;;11.80;11.80;;;;;;;;5088176;28;8861;-76
2021/09/01 12:29:59;;;;;;;;;11.80;11.80;;;;;;;;5087129;28;8911;-76
2021/09/01 12:32:26;;;;;;;;;13.20;11.20;;;;;;;;5079301;28;8850;-76
2021/09/01 12:34:55;;;;;;;;;11.00;10.60;;;;;;;;5067497;28;8856;-76
2021/09/01 12:37:24;;;;;;;;;11.80;11.80;;;;;;;;5080959;28;8875;-76
2021/09/01 12:39:53;;;;;;;;;13.00;11.40;;;;;;;;5067714;28;9006;-76
2021/09/01 12:42:27;;;;;;;;;11.60;10.00;;;;;;;;5060405;28;8870;-76
2021/09/01 12:44:55;;;;;;;;;10.60;10.60;;;;;;;;5062413;28;9677;-76
2021/09/01 12:47:25;;;;;;;;;12.00;12.00;;;;;;;;5066654;28;8852;-76
2021/09/01 12:49:53;;;;;;;;;11.60;10.80;;;;;;;;5049346;28;9669;-76
2021/09/01 12:52:22;;;;;;;;;13.60;13.60;;;;;;;;5067361;28;8872;-76
2021/09/01 12:54:49;;;;;;;;;12.00;12.00;;;;;;;;5082811;28;9616;-76
2021/09/01 12:57:17;;;;;;;;;10.20;10.20;;;;;;;;5087924;28;8883;-76
2021/09/01 12:59:44;;;;;;;;;11.00;11.00;;;;;;;;5075820;28;9023;-76
2021/09/01 13:02:12;;;;;;;;;12.20;10.80;;;;;;;;5068042;28;8812;-76
2021/09/01 13:04:41;;;;;;;;;11.80;10.60;;;;;;;;5086572;28;8880;-76
2021/09/01 13:07:10;;;;;;;;;16.00;12.20;;;;;;;;5087330;28;8899;-76
2021/09/01 13:09:38;;;;;;;;;12.80;11.00;;;;;;;;5084325;28;8875;-76
2021/09/01 13:12:06;;;;;;;;;9.80;9.40;;;;;;;;5086205;28;8889;-76
2021/09/01 13:14:34;;;;;;;;;13.00;10.80;;;;;;;;5078492;28;8867;-76
2021/09/01 13:17:01;;;;;;;;;10.20;10.20;;;;;;;;5065607;28;9373;-76
2021/09/01 13:19:28;;;;;;;;;9.80;9.80;;;;;;;;5067338;28;8888;-76
2021/09/01 13:21:57;;;;;;;;;11.40;11.40;;;;;;;;5065712;28;8953;-76
2021/09/01 13:24:24;;;;;;;;;8.20;8.20;;;;;;;;5066992;28;8982;-76
2021/09/01 13:26:51;;;;;;;;;7.40;7.40;;;;;;;;5075376;28;8999;-76
2021/09/01 13:29:19;;;;;;;;;11.00;9.40;;;;;;;;5085072;28;8905;-76
2021/09/01 13:31:46;;;;;;;;;10.80;10.80;;;;;;;;5071929;28;9168;-76
2021/09/01 13:34:14;;;;;;;;;11.00;11.00;;;;;;;;5067177;28;8987;-77
2021/09/01 13:36:41;;;;;;;;;10.80;10.80;;;;;;;;5071742;28;8896;-77
2021/09/01 13:39:10;;;;;;;;;8.60;8.60;;;;;;;;5065108;28;8868;-77
2021/09/01 13:41:38;;;;;;;;;10.20;10.20;;;;;;;;5070262;28;8937;-77
2021/09/01 13:44:06;;;;;;;;;10.00;7.80;;;;;;;;5045340;28;8911;-77
2021/09/01 13:46:33;;;;;;;;;12.20;12.20;;;;;;;;5064228;28;8982;-77
2021/09/01 13:49:01;;;;;;;;;11.60;11.60;;;;;;;;5066951;28;8860;-75
2021/09/01 13:51:29;;;;;;;;;13.00;11.40;;;;;;;;5085329;28;8883;-76
2021/09/01 13:53:56;;;;;;;;;11.40;11.00;;;;;;;;5069744;28;8879;-75
2021/09/01 13:56:26;;;;;;;;;10.20;10.20;;;;;;;;5054154;28;8941;-76
2021/09/01 13:58:53;;;;;;;;;11.00;11.00;;;;;;;;5066514;28;8884;-74
2021/09/01 14:01:21;;;;;;;;;10.60;10.60;;;;;;;;5066389;28;8836;-74
2021/09/01 14:03:49;;;;;;;;;13.00;12.80;;;;;;;;5064446;28;8864;-76
2021/09/01 14:06:16;;;;;;;;;13.00;13.00;;;;;;;;5064434;28;9312;-75
2021/09/01 14:08:44;;;;;;;;;11.00;11.00;;;;;;;;5063025;28;8864;-76
2021/09/01 14:11:11;;;;;;;;;11.40;10.00;;;;;;;;5065788;28;8879;-75
2021/09/01 14:13:42;;;;;;;;;11.40;11.40;;;;;;;;5062915;28;8871;-76
2021/09/01 14:16:12;;;;;;;;;12.00;12.00;;;;;;;;5062866;28;8871;-77
2021/09/01 14:18:39;;;;;;;;;8.60;8.60;;;;;;;;5064069;28;8888;-75
2021/09/01 14:21:06;;;;;;;;;7.60;7.60;;;;;;;;5064400;28;8891;-76
2021/09/01 14:23:34;;;;;;;;;12.00;9.80;;;;;;;;5049663;28;8856;-76
2021/09/01 14:26:01;;;;;;;;;7.60;7.20;;;;;;;;5060589;28;9674;-76
2021/09/01 14:28:28;;;;;;;;;11.80;11.80;;;;;;;;5046090;28;9749;-76
2021/09/01 14:30:57;;;;;;;;;10.40;10.40;;;;;;;;5044488;28;8828;-76
2021/09/01 14:33:24;;;;;;;;;11.80;11.40;;;;;;;;5062184;28;8890;-76
2021/09/01 14:35:52;;;;;;;;;9.40;9.20;;;;;;;;5063104;28;9002;-77
2021/09/01 14:38:19;;;;;;;;;9.20;9.20;;;;;;;;5059049;28;8872;-76
2021/09/01 14:40:47;;;;;;;;;11.60;9.00;;;;;;;;5062607;28;8902;-76
2021/09/01 14:43:15;;;;;;;;;8.20;8.20;;;;;;;;5063337;28;8848;-75